Big Rapids, Michigan
Current Conditions -  °F | °C
As of 7:15 AM on Saturday 25 Oct 2014 (Local Time) from KRQB Reporting Station
Overcast Overcast  
Wind Chill: 54°   Ceiling: 1000
Heat Index: 54°   Visibility: 7mi
Dew Point: 54°   Wind: 8mph
Humidity: 100%   Direction: 280°W
Pressure: 29.8"   Gusts: NA
Location:  43.7°N, 85.48°W
Report Text: KRQB 251115Z AUTO 28007KT 7SM OVC010 12/12 A2980 RMK AO2 T01220122
Loading
Personal Weather Stations






























Interactive Weather Map
Tropical Storm Tracking
New forecast layout! Learn more

10-Day Weather Forecast

Advertisements
Track Severe Weather on mobile